sensor_id;sensor_type;location;lat;lon;timestamp;temperature;humidity
25616;DHT22;13482;48.234;13.006;2022-10-16T00:01:41;16.40;73.80
25616;DHT22;13482;48.234;13.006;2022-10-16T00:04:09;16.40;73.80
25616;DHT22;13482;48.234;13.006;2022-10-16T00:06:36;16.40;73.80
25616;DHT22;13482;48.234;13.006;2022-10-16T00:09:05;16.40;73.80
25616;DHT22;13482;48.234;13.006;2022-10-16T00:11:34;16.40;73.80
25616;DHT22;13482;48.234;13.006;2022-10-16T00:14:12;16.40;73.80
25616;DHT22;13482;48.234;13.006;2022-10-16T00:16:40;16.30;73.70
25616;DHT22;13482;48.234;13.006;2022-10-16T00:19:09;16.30;73.70
25616;DHT22;13482;48.234;13.006;2022-10-16T00:21:38;16.30;73.80
25616;DHT22;13482;48.234;13.006;2022-10-16T00:24:08;16.20;73.70
25616;DHT22;13482;48.234;13.006;2022-10-16T00:26:37;16.20;73.80
25616;DHT22;13482;48.234;13.006;2022-10-16T00:29:06;16.20;73.90
25616;DHT22;13482;48.234;13.006;2022-10-16T00:31:34;16.20;73.90
25616;DHT22;13482;48.234;13.006;2022-10-16T00:34:01;16.20;73.90
25616;DHT22;13482;48.234;13.006;2022-10-16T00:36:29;16.10;73.80
25616;DHT22;13482;48.234;13.006;2022-10-16T00:38:57;16.10;73.80
25616;DHT22;13482;48.234;13.006;2022-10-16T00:41:32;16.10;73.80
25616;DHT22;13482;48.234;13.006;2022-10-16T00:44:03;16.10;73.80
25616;DHT22;13482;48.234;13.006;2022-10-16T00:46:51;16.10;73.80
25616;DHT22;13482;48.234;13.006;2022-10-16T00:49:19;16.10;73.70
25616;DHT22;13482;48.234;13.006;2022-10-16T00:51:53;16.10;73.80
25616;DHT22;13482;48.234;13.006;2022-10-16T00:54:21;16.00;74.00
25616;DHT22;13482;48.234;13.006;2022-10-16T00:56:50;16.00;74.00
25616;DHT22;13482;48.234;13.006;2022-10-16T00:59:25;16.00;74.00
25616;DHT22;13482;48.234;13.006;2022-10-16T01:01:54;16.00;74.20
25616;DHT22;13482;48.234;13.006;2022-10-16T01:04:25;15.90;74.00
25616;DHT22;13482;48.234;13.006;2022-10-16T01:10:10;15.90;74.40
25616;DHT22;13482;48.234;13.006;2022-10-16T01:15:18;15.80;73.80
25616;DHT22;13482;48.234;13.006;2022-10-16T01:20:35;15.80;73.80
25616;DHT22;13482;48.234;13.006;2022-10-16T01:32:05;15.60;74.10
25616;DHT22;13482;48.234;13.006;2022-10-16T01:34:43;15.60;73.80
25616;DHT22;13482;48.234;13.006;2022-10-16T01:40:20;15.50;73.60
25616;DHT22;13482;48.234;13.006;2022-10-16T01:43:10;15.50;73.50
25616;DHT22;13482;48.234;13.006;2022-10-16T01:45:45;15.40;73.90
25616;DHT22;13482;48.234;13.006;2022-10-16T01:48:16;15.40;73.50
25616;DHT22;13482;48.234;13.006;2022-10-16T01:50:55;15.30;73.70
25616;DHT22;13482;48.234;13.006;2022-10-16T01:53:25;15.30;73.80
25616;DHT22;13482;48.234;13.006;2022-10-16T01:55:55;15.20;73.70
25616;DHT22;13482;48.234;13.006;2022-10-16T01:58:24;15.20;73.80
25616;DHT22;13482;48.234;13.006;2022-10-16T02:00:54;15.20;73.80
25616;DHT22;13482;48.234;13.006;2022-10-16T02:03:21;15.20;73.70
25616;DHT22;13482;48.234;13.006;2022-10-16T02:05:55;15.10;73.70
25616;DHT22;13482;48.234;13.006;2022-10-16T02:08:25;15.10;73.80
25616;DHT22;13482;48.234;13.006;2022-10-16T02:10:56;15.10;73.70
25616;DHT22;13482;48.234;13.006;2022-10-16T02:13:33;15.00;73.60
25616;DHT22;13482;48.234;13.006;2022-10-16T02:16:04;15.00;73.70
25616;DHT22;13482;48.234;13.006;2022-10-16T02:18:32;15.00;73.70
25616;DHT22;13482;48.234;13.006;2022-10-16T02:26:57;15.00;73.80
25616;DHT22;13482;48.234;13.006;2022-10-16T02:29:30;14.90;73.70
25616;DHT22;13482;48.234;13.006;2022-10-16T02:32:02;14.90;73.60
25616;DHT22;13482;48.234;13.006;2022-10-16T02:34:32;14.90;73.90
25616;DHT22;13482;48.234;13.006;2022-10-16T02:37:01;14.90;74.10
25616;DHT22;13482;48.234;13.006;2022-10-16T02:39:29;14.80;74.20
25616;DHT22;13482;48.234;13.006;2022-10-16T02:41:56;14.80;74.20
25616;DHT22;13482;48.234;13.006;2022-10-16T02:44:23;14.80;74.10
25616;DHT22;13482;48.234;13.006;2022-10-16T02:46:51;14.80;74.10
25616;DHT22;13482;48.234;13.006;2022-10-16T02:49:18;14.80;74.10
25616;DHT22;13482;48.234;13.006;2022-10-16T02:51:45;14.80;74.20
25616;DHT22;13482;48.234;13.006;2022-10-16T02:54:12;14.80;74.30
25616;DHT22;13482;48.234;13.006;2022-10-16T02:56:39;14.80;74.30
25616;DHT22;13482;48.234;13.006;2022-10-16T02:59:06;14.80;74.50
25616;DHT22;13482;48.234;13.006;2022-10-16T03:01:33;14.70;74.50
25616;DHT22;13482;48.234;13.006;2022-10-16T03:04:02;14.70;74.50
25616;DHT22;13482;48.234;13.006;2022-10-16T03:06:30;14.70;74.50
25616;DHT22;13482;48.234;13.006;2022-10-16T03:08:57;14.70;74.50
25616;DHT22;13482;48.234;13.006;2022-10-16T03:11:24;14.70;74.70
25616;DHT22;13482;48.234;13.006;2022-10-16T03:13:51;14.70;74.80
25616;DHT22;13482;48.234;13.006;2022-10-16T03:16:19;14.70;74.90
25616;DHT22;13482;48.234;13.006;2022-10-16T03:18:49;14.70;74.80
25616;DHT22;13482;48.234;13.006;2022-10-16T03:21:16;14.70;74.90
25616;DHT22;13482;48.234;13.006;2022-10-16T03:23:44;14.60;74.90
25616;DHT22;13482;48.234;13.006;2022-10-16T03:26:11;14.60;74.80
25616;DHT22;13482;48.234;13.006;2022-10-16T03:28:38;14.60;74.80
25616;DHT22;13482;48.234;13.006;2022-10-16T03:31:05;14.60;74.80
25616;DHT22;13482;48.234;13.006;2022-10-16T03:33:32;14.60;74.90
25616;DHT22;13482;48.234;13.006;2022-10-16T03:35:59;14.60;75.00
25616;DHT22;13482;48.234;13.006;2022-10-16T03:38:27;14.60;75.10
25616;DHT22;13482;48.234;13.006;2022-10-16T03:40:54;14.60;75.10
25616;DHT22;13482;48.234;13.006;2022-10-16T03:43:21;14.60;75.00
25616;DHT22;13482;48.234;13.006;2022-10-16T03:45:50;14.60;74.90
25616;DHT22;13482;48.234;13.006;2022-10-16T03:48:18;14.60;74.90
25616;DHT22;13482;48.234;13.006;2022-10-16T03:50:46;14.60;74.80
25616;DHT22;13482;48.234;13.006;2022-10-16T03:53:15;14.60;74.80
25616;DHT22;13482;48.234;13.006;2022-10-16T03:55:42;14.60;74.80
25616;DHT22;13482;48.234;13.006;2022-10-16T03:58:10;14.60;74.90
25616;DHT22;13482;48.234;13.006;2022-10-16T04:00:45;14.60;74.80
25616;DHT22;13482;48.234;13.006;2022-10-16T04:03:14;14.60;74.80
25616;DHT22;13482;48.234;13.006;2022-10-16T04:05:41;14.60;74.60
25616;DHT22;13482;48.234;13.006;2022-10-16T04:08:08;14.60;74.60
25616;DHT22;13482;48.234;13.006;2022-10-16T04:10:35;14.50;74.60
25616;DHT22;13482;48.234;13.006;2022-10-16T04:13:03;14.50;74.70
25616;DHT22;13482;48.234;13.006;2022-10-16T04:15:30;14.50;74.70
25616;DHT22;13482;48.234;13.006;2022-10-16T04:17:57;14.40;74.70
25616;DHT22;13482;48.234;13.006;2022-10-16T04:20:24;14.40;74.70
25616;DHT22;13482;48.234;13.006;2022-10-16T04:22:51;14.30;74.80
25616;DHT22;13482;48.234;13.006;2022-10-16T04:25:18;14.30;74.90
25616;DHT22;13482;48.234;13.006;2022-10-16T04:27:45;14.30;75.00
25616;DHT22;13482;48.234;13.006;2022-10-16T04:30:13;14.30;75.00
25616;DHT22;13482;48.234;13.006;2022-10-16T04:32:40;14.30;74.90
25616;DHT22;13482;48.234;13.006;2022-10-16T04:35:08;14.30;74.80
25616;DHT22;13482;48.234;13.006;2022-10-16T04:37:35;14.20;74.80
25616;DHT22;13482;48.234;13.006;2022-10-16T04:40:03;14.20;74.80
25616;DHT22;13482;48.234;13.006;2022-10-16T04:42:31;14.20;74.80
25616;DHT22;13482;48.234;13.006;2022-10-16T04:44:58;14.20;74.90
25616;DHT22;13482;48.234;13.006;2022-10-16T04:47:25;14.20;74.90
25616;DHT22;13482;48.234;13.006;2022-10-16T04:49:52;14.20;74.90
25616;DHT22;13482;48.234;13.006;2022-10-16T04:52:20;14.20;74.90
25616;DHT22;13482;48.234;13.006;2022-10-16T04:54:48;14.10;74.90
25616;DHT22;13482;48.234;13.006;2022-10-16T04:57:17;14.10;74.90
25616;DHT22;13482;48.234;13.006;2022-10-16T04:59:44;14.10;75.00
25616;DHT22;13482;48.234;13.006;2022-10-16T05:02:11;14.10;75.00
25616;DHT22;13482;48.234;13.006;2022-10-16T05:04:38;14.10;75.10
25616;DHT22;13482;48.234;13.006;2022-10-16T05:07:05;14.10;75.10
25616;DHT22;13482;48.234;13.006;2022-10-16T05:09:32;14.10;75.10
25616;DHT22;13482;48.234;13.006;2022-10-16T05:11:59;14.00;75.10
25616;DHT22;13482;48.234;13.006;2022-10-16T05:14:27;14.00;75.20
25616;DHT22;13482;48.234;13.006;2022-10-16T05:16:54;14.00;75.30
25616;DHT22;13482;48.234;13.006;2022-10-16T05:19:21;14.00;75.30
25616;DHT22;13482;48.234;13.006;2022-10-16T05:21:53;14.00;75.30
25616;DHT22;13482;48.234;13.006;2022-10-16T05:24:21;14.00;75.30
25616;DHT22;13482;48.234;13.006;2022-10-16T05:26:48;14.00;75.30
25616;DHT22;13482;48.234;13.006;2022-10-16T05:29:15;14.00;75.40
25616;DHT22;13482;48.234;13.006;2022-10-16T05:31:42;14.00;75.40
25616;DHT22;13482;48.234;13.006;2022-10-16T05:34:09;14.00;75.30
25616;DHT22;13482;48.234;13.006;2022-10-16T05:36:36;14.00;75.30
25616;DHT22;13482;48.234;13.006;2022-10-16T05:39:04;14.00;75.30
25616;DHT22;13482;48.234;13.006;2022-10-16T05:41:31;14.00;75.20
25616;DHT22;13482;48.234;13.006;2022-10-16T05:43:58;14.00;75.20
25616;DHT22;13482;48.234;13.006;2022-10-16T05:46:25;14.00;75.10
25616;DHT22;13482;48.234;13.006;2022-10-16T05:48:52;13.90;75.20
25616;DHT22;13482;48.234;13.006;2022-10-16T05:51:19;13.90;75.20
25616;DHT22;13482;48.234;13.006;2022-10-16T05:53:47;13.90;75.20
25616;DHT22;13482;48.234;13.006;2022-10-16T05:56:14;13.90;75.30
25616;DHT22;13482;48.234;13.006;2022-10-16T05:58:42;13.90;75.40
25616;DHT22;13482;48.234;13.006;2022-10-16T06:01:13;13.90;75.40
25616;DHT22;13482;48.234;13.006;2022-10-16T06:03:42;13.90;75.40
25616;DHT22;13482;48.234;13.006;2022-10-16T06:06:18;13.90;75.50
25616;DHT22;13482;48.234;13.006;2022-10-16T06:08:48;14.00;75.80
25616;DHT22;13482;48.234;13.006;2022-10-16T06:11:26;14.00;75.70
25616;DHT22;13482;48.234;13.006;2022-10-16T06:13:56;14.10;76.20
25616;DHT22;13482;48.234;13.006;2022-10-16T06:16:25;14.10;76.10
25616;DHT22;13482;48.234;13.006;2022-10-16T06:18:54;14.10;76.30
25616;DHT22;13482;48.234;13.006;2022-10-16T06:21:24;14.20;76.50
25616;DHT22;13482;48.234;13.006;2022-10-16T06:23:52;14.30;76.80
25616;DHT22;13482;48.234;13.006;2022-10-16T06:26:23;14.40;77.10
25616;DHT22;13482;48.234;13.006;2022-10-16T06:28:55;14.40;77.20
25616;DHT22;13482;48.234;13.006;2022-10-16T06:31:24;14.50;77.40
25616;DHT22;13482;48.234;13.006;2022-10-16T06:33:54;14.70;77.70
25616;DHT22;13482;48.234;13.006;2022-10-16T06:36:22;14.80;77.80
25616;DHT22;13482;48.234;13.006;2022-10-16T06:38:50;14.90;77.80
25616;DHT22;13482;48.234;13.006;2022-10-16T06:41:19;15.10;78.00
25616;DHT22;13482;48.234;13.006;2022-10-16T06:43:47;15.20;78.00
25616;DHT22;13482;48.234;13.006;2022-10-16T06:46:19;15.30;78.00
25616;DHT22;13482;48.234;13.006;2022-10-16T06:48:47;15.50;78.20
25616;DHT22;13482;48.234;13.006;2022-10-16T06:51:20;15.60;78.30
25616;DHT22;13482;48.234;13.006;2022-10-16T06:53:51;15.80;78.50
25616;DHT22;13482;48.234;13.006;2022-10-16T06:56:30;15.90;78.40
25616;DHT22;13482;48.234;13.006;2022-10-16T06:58:58;16.10;78.30
25616;DHT22;13482;48.234;13.006;2022-10-16T07:01:27;16.20;78.00
25616;DHT22;13482;48.234;13.006;2022-10-16T07:03:54;16.30;77.60
25616;DHT22;13482;48.234;13.006;2022-10-16T07:06:24;16.40;77.40
25616;DHT22;13482;48.234;13.006;2022-10-16T07:08:52;16.50;77.20
25616;DHT22;13482;48.234;13.006;2022-10-16T07:11:23;16.60;77.20
25616;DHT22;13482;48.234;13.006;2022-10-16T07:13:51;16.70;77.20
25616;DHT22;13482;48.234;13.006;2022-10-16T07:16:27;16.80;77.30
25616;DHT22;13482;48.234;13.006;2022-10-16T07:18:57;16.90;77.60
25616;DHT22;13482;48.234;13.006;2022-10-16T07:21:31;17.00;77.80
25616;DHT22;13482;48.234;13.006;2022-10-16T07:24:06;17.10;78.00
25616;DHT22;13482;48.234;13.006;2022-10-16T07:26:37;17.30;78.10
25616;DHT22;13482;48.234;13.006;2022-10-16T07:29:17;17.50;78.40
25616;DHT22;13482;48.234;13.006;2022-10-16T07:31:47;17.70;78.60
25616;DHT22;13482;48.234;13.006;2022-10-16T07:34:16;17.90;78.40
25616;DHT22;13482;48.234;13.006;2022-10-16T07:36:48;18.10;78.20
25616;DHT22;13482;48.234;13.006;2022-10-16T07:39:16;18.30;78.10
25616;DHT22;13482;48.234;13.006;2022-10-16T07:41:44;18.50;77.80
25616;DHT22;13482;48.234;13.006;2022-10-16T07:44:11;18.60;77.50
25616;DHT22;13482;48.234;13.006;2022-10-16T07:46:38;18.70;77.20
25616;DHT22;13482;48.234;13.006;2022-10-16T07:49:06;18.90;76.80
25616;DHT22;13482;48.234;13.006;2022-10-16T07:51:33;19.00;76.60
25616;DHT22;13482;48.234;13.006;2022-10-16T07:54:00;19.10;76.50
25616;DHT22;13482;48.234;13.006;2022-10-16T07:56:28;19.20;76.50
25616;DHT22;13482;48.234;13.006;2022-10-16T07:58:57;19.20;76.40
25616;DHT22;13482;48.234;13.006;2022-10-16T08:01:24;19.30;76.30
25616;DHT22;13482;48.234;13.006;2022-10-16T08:03:52;19.40;76.20
25616;DHT22;13482;48.234;13.006;2022-10-16T08:06:20;19.50;76.00
25616;DHT22;13482;48.234;13.006;2022-10-16T08:08:54;19.60;75.90
25616;DHT22;13482;48.234;13.006;2022-10-16T08:11:25;19.70;75.90
25616;DHT22;13482;48.234;13.006;2022-10-16T08:13:52;19.80;76.10
25616;DHT22;13482;48.234;13.006;2022-10-16T08:16:19;19.90;76.20
25616;DHT22;13482;48.234;13.006;2022-10-16T08:18:47;20.10;76.20
25616;DHT22;13482;48.234;13.006;2022-10-16T08:21:16;20.20;76.10
25616;DHT22;13482;48.234;13.006;2022-10-16T08:23:47;20.40;76.20
25616;DHT22;13482;48.234;13.006;2022-10-16T08:26:23;20.50;76.20
25616;DHT22;13482;48.234;13.006;2022-10-16T08:28:50;20.70;75.80
25616;DHT22;13482;48.234;13.006;2022-10-16T08:31:18;20.80;75.60
25616;DHT22;13482;48.234;13.006;2022-10-16T08:33:46;21.00;75.50
25616;DHT22;13482;48.234;13.006;2022-10-16T08:36:16;21.10;75.20
25616;DHT22;13482;48.234;13.006;2022-10-16T08:38:43;21.20;75.10
25616;DHT22;13482;48.234;13.006;2022-10-16T08:47:18;21.60;74.20
25616;DHT22;13482;48.234;13.006;2022-10-16T08:50:08;21.70;74.60
25616;DHT22;13482;48.234;13.006;2022-10-16T08:52:40;21.90;74.30
25616;DHT22;13482;48.234;13.006;2022-10-16T08:58:14;22.10;73.30
25616;DHT22;13482;48.234;13.006;2022-10-16T09:00:46;22.20;73.80
25616;DHT22;13482;48.234;13.006;2022-10-16T09:03:27;22.30;73.50
25616;DHT22;13482;48.234;13.006;2022-10-16T09:11:59;22.50;73.00
25616;DHT22;13482;48.234;13.006;2022-10-16T09:20:00;22.80;73.00
25616;DHT22;13482;48.234;13.006;2022-10-16T09:22:31;22.90;72.90
25616;DHT22;13482;48.234;13.006;2022-10-16T09:25:00;22.90;72.10
25616;DHT22;13482;48.234;13.006;2022-10-16T09:27:31;23.00;71.80
25616;DHT22;13482;48.234;13.006;2022-10-16T09:29:59;23.00;71.70
25616;DHT22;13482;48.234;13.006;2022-10-16T09:32:27;23.00;71.60
25616;DHT22;13482;48.234;13.006;2022-10-16T09:34:55;23.00;71.60
25616;DHT22;13482;48.234;13.006;2022-10-16T09:37:25;23.00;71.70
25616;DHT22;13482;48.234;13.006;2022-10-16T09:39:54;23.00;71.80
25616;DHT22;13482;48.234;13.006;2022-10-16T09:42:32;23.00;72.00
25616;DHT22;13482;48.234;13.006;2022-10-16T09:45:02;23.10;71.70
25616;DHT22;13482;48.234;13.006;2022-10-16T09:47:31;23.20;71.90
25616;DHT22;13482;48.234;13.006;2022-10-16T09:52:29;23.30;71.50
25616;DHT22;13482;48.234;13.006;2022-10-16T09:55:03;23.40;71.70
25616;DHT22;13482;48.234;13.006;2022-10-16T09:57:53;23.50;71.70
25616;DHT22;13482;48.234;13.006;2022-10-16T10:00:23;23.60;71.30
25616;DHT22;13482;48.234;13.006;2022-10-16T10:02:51;23.70;71.90
25616;DHT22;13482;48.234;13.006;2022-10-16T10:05:26;23.80;72.00
25616;DHT22;13482;48.234;13.006;2022-10-16T10:07:57;24.00;71.80
25616;DHT22;13482;48.234;13.006;2022-10-16T10:10:28;24.10;71.60
25616;DHT22;13482;48.234;13.006;2022-10-16T10:12:57;24.30;71.50
25616;DHT22;13482;48.234;13.006;2022-10-16T10:15:24;24.40;71.40
25616;DHT22;13482;48.234;13.006;2022-10-16T10:17:55;24.50;71.00
25616;DHT22;13482;48.234;13.006;2022-10-16T10:20:31;24.70;70.70
25616;DHT22;13482;48.234;13.006;2022-10-16T10:23:13;24.80;69.70
25616;DHT22;13482;48.234;13.006;2022-10-16T10:25:55;24.90;70.40
25616;DHT22;13482;48.234;13.006;2022-10-16T10:36:25;25.40;70.20
25616;DHT22;13482;48.234;13.006;2022-10-16T10:50:25;26.00;67.90
25616;DHT22;13482;48.234;13.006;2022-10-16T10:54:22;26.10;68.90
25616;DHT22;13482;48.234;13.006;2022-10-16T10:59:28;26.30;67.70
25616;DHT22;13482;48.234;13.006;2022-10-16T11:02:01;26.40;67.60
25616;DHT22;13482;48.234;13.006;2022-10-16T11:04:54;26.50;68.60
25616;DHT22;13482;48.234;13.006;2022-10-16T11:07:25;26.60;67.60
25616;DHT22;13482;48.234;13.006;2022-10-16T11:10:02;26.70;68.00
25616;DHT22;13482;48.234;13.006;2022-10-16T11:12:36;26.70;67.50
25616;DHT22;13482;48.234;13.006;2022-10-16T11:15:31;26.80;67.30
25616;DHT22;13482;48.234;13.006;2022-10-16T11:20:42;27.00;67.30
25616;DHT22;13482;48.234;13.006;2022-10-16T11:25:59;27.10;67.20
25616;DHT22;13482;48.234;13.006;2022-10-16T11:28:45;27.20;67.50
25616;DHT22;13482;48.234;13.006;2022-10-16T11:37:13;27.50;66.30
25616;DHT22;13482;48.234;13.006;2022-10-16T11:39:54;27.50;66.80
25616;DHT22;13482;48.234;13.006;2022-10-16T11:42:37;27.60;66.90
25616;DHT22;13482;48.234;13.006;2022-10-16T11:45:20;27.70;66.40
25616;DHT22;13482;48.234;13.006;2022-10-16T11:54:22;27.90;66.30
25616;DHT22;13482;48.234;13.006;2022-10-16T11:56:59;28.00;66.30
25616;DHT22;13482;48.234;13.006;2022-10-16T11:59:42;28.00;66.50
25616;DHT22;13482;48.234;13.006;2022-10-16T12:08:28;28.30;65.80
25616;DHT22;13482;48.234;13.006;2022-10-16T12:11:20;28.30;66.40
25616;DHT22;13482;48.234;13.006;2022-10-16T12:14:20;28.40;65.40
25616;DHT22;13482;48.234;13.006;2022-10-16T12:16:58;28.40;64.80
25616;DHT22;13482;48.234;13.006;2022-10-16T12:19:44;28.50;65.60
25616;DHT22;13482;48.234;13.006;2022-10-16T12:22:18;28.50;65.80
25616;DHT22;13482;48.234;13.006;2022-10-16T12:24:50;28.50;65.10
25616;DHT22;13482;48.234;13.006;2022-10-16T12:27:31;28.50;65.40
25616;DHT22;13482;48.234;13.006;2022-10-16T12:30:04;28.60;64.90
25616;DHT22;13482;48.234;13.006;2022-10-16T12:35:29;28.60;65.60
25616;DHT22;13482;48.234;13.006;2022-10-16T12:40:44;28.70;64.50
25616;DHT22;13482;48.234;13.006;2022-10-16T12:46:39;28.80;65.20
25616;DHT22;13482;48.234;13.006;2022-10-16T12:51:41;29.00;64.90
25616;DHT22;13482;48.234;13.006;2022-10-16T12:59:43;29.10;65.00
25616;DHT22;13482;48.234;13.006;2022-10-16T13:02:59;29.20;64.60
25616;DHT22;13482;48.234;13.006;2022-10-16T13:06:17;29.30;64.50
25616;DHT22;13482;48.234;13.006;2022-10-16T13:14:49;29.50;64.50
25616;DHT22;13482;48.234;13.006;2022-10-16T13:23:18;29.80;64.40
25616;DHT22;13482;48.234;13.006;2022-10-16T13:28:42;30.00;63.70
25616;DHT22;13482;48.234;13.006;2022-10-16T13:31:17;30.10;64.60
25616;DHT22;13482;48.234;13.006;2022-10-16T13:33:50;30.20;64.00
25616;DHT22;13482;48.234;13.006;2022-10-16T13:36:33;30.30;64.00
25616;DHT22;13482;48.234;13.006;2022-10-16T13:41:44;30.50;63.20
25616;DHT22;13482;48.234;13.006;2022-10-16T13:44:15;30.60;64.00
25616;DHT22;13482;48.234;13.006;2022-10-16T13:46:44;30.70;63.80
25616;DHT22;13482;48.234;13.006;2022-10-16T13:49:16;30.80;63.60
25616;DHT22;13482;48.234;13.006;2022-10-16T13:51:58;30.90;63.50
25616;DHT22;13482;48.234;13.006;2022-10-16T13:54:27;31.00;62.30
25616;DHT22;13482;48.234;13.006;2022-10-16T13:57:05;31.10;63.10
25616;DHT22;13482;48.234;13.006;2022-10-16T13:59:52;31.30;62.40
25616;DHT22;13482;48.234;13.006;2022-10-16T14:02:33;31.40;62.70
25616;DHT22;13482;48.234;13.006;2022-10-16T14:05:04;31.50;61.90
25616;DHT22;13482;48.234;13.006;2022-10-16T14:07:33;31.60;62.30
25616;DHT22;13482;48.234;13.006;2022-10-16T14:10:07;31.80;62.10
25616;DHT22;13482;48.234;13.006;2022-10-16T14:12:55;31.90;61.70
25616;DHT22;13482;48.234;13.006;2022-10-16T14:15:24;32.10;61.20
25616;DHT22;13482;48.234;13.006;2022-10-16T14:17:52;32.30;61.90
25616;DHT22;13482;48.234;13.006;2022-10-16T14:20:24;32.50;61.80
25616;DHT22;13482;48.234;13.006;2022-10-16T14:23:04;32.70;61.40
25616;DHT22;13482;48.234;13.006;2022-10-16T14:25:45;32.90;60.10
25616;DHT22;13482;48.234;13.006;2022-10-16T14:28:17;33.20;61.40
25616;DHT22;13482;48.234;13.006;2022-10-16T14:30:57;33.40;61.10
25616;DHT22;13482;48.234;13.006;2022-10-16T14:36:12;33.80;60.60
25616;DHT22;13482;48.234;13.006;2022-10-16T14:38:43;34.10;60.60
25616;DHT22;13482;48.234;13.006;2022-10-16T14:41:30;34.40;60.60
25616;DHT22;13482;48.234;13.006;2022-10-16T14:44:03;34.80;60.40
25616;DHT22;13482;48.234;13.006;2022-10-16T14:46:42;35.10;59.10
25616;DHT22;13482;48.234;13.006;2022-10-16T14:51:38;35.80;59.10
25616;DHT22;13482;48.234;13.006;2022-10-16T14:54:12;36.10;58.50
25616;DHT22;13482;48.234;13.006;2022-10-16T14:56:50;36.40;58.00
25616;DHT22;13482;48.234;13.006;2022-10-16T15:04:48;37.50;55.00
25616;DHT22;13482;48.234;13.006;2022-10-16T15:07:16;37.70;56.30
25616;DHT22;13482;48.234;13.006;2022-10-16T15:09:43;38.00;55.70
25616;DHT22;13482;48.234;13.006;2022-10-16T15:12:15;38.20;55.20
25616;DHT22;13482;48.234;13.006;2022-10-16T15:14:44;38.40;54.80
25616;DHT22;13482;48.234;13.006;2022-10-16T15:17:11;38.60;54.50
25616;DHT22;13482;48.234;13.006;2022-10-16T15:19:41;38.70;54.00
25616;DHT22;13482;48.234;13.006;2022-10-16T15:22:11;38.90;53.70
25616;DHT22;13482;48.234;13.006;2022-10-16T15:24:38;39.00;53.10
25616;DHT22;13482;48.234;13.006;2022-10-16T15:27:06;39.10;52.80
25616;DHT22;13482;48.234;13.006;2022-10-16T15:29:33;39.20;52.40
25616;DHT22;13482;48.234;13.006;2022-10-16T15:32:00;39.20;52.00
25616;DHT22;13482;48.234;13.006;2022-10-16T15:34:27;39.20;51.60
25616;DHT22;13482;48.234;13.006;2022-10-16T15:36:54;39.20;51.30
25616;DHT22;13482;48.234;13.006;2022-10-16T15:39:24;39.10;51.10
25616;DHT22;13482;48.234;13.006;2022-10-16T15:41:51;39.00;50.90
25616;DHT22;13482;48.234;13.006;2022-10-16T15:44:20;38.90;50.40
25616;DHT22;13482;48.234;13.006;2022-10-16T15:46:56;38.60;49.80
25616;DHT22;13482;48.234;13.006;2022-10-16T15:49:23;38.20;49.60
25616;DHT22;13482;48.234;13.006;2022-10-16T15:51:50;37.70;49.50
25616;DHT22;13482;48.234;13.006;2022-10-16T15:54:19;37.00;49.40
25616;DHT22;13482;48.234;13.006;2022-10-16T15:56:49;36.40;49.50
25616;DHT22;13482;48.234;13.006;2022-10-16T15:59:16;35.70;49.70
25616;DHT22;13482;48.234;13.006;2022-10-16T16:01:43;35.10;50.00
25616;DHT22;13482;48.234;13.006;2022-10-16T16:04:10;34.40;50.30
25616;DHT22;13482;48.234;13.006;2022-10-16T16:06:58;33.80;50.60
25616;DHT22;13482;48.234;13.006;2022-10-16T16:09:26;33.10;51.10
25616;DHT22;13482;48.234;13.006;2022-10-16T16:11:53;32.50;51.50
25616;DHT22;13482;48.234;13.006;2022-10-16T16:14:20;32.00;51.90
25616;DHT22;13482;48.234;13.006;2022-10-16T16:16:47;31.50;52.20
25616;DHT22;13482;48.234;13.006;2022-10-16T16:19:15;31.00;52.80
25616;DHT22;13482;48.234;13.006;2022-10-16T16:21:44;30.50;53.20
25616;DHT22;13482;48.234;13.006;2022-10-16T16:24:11;30.00;53.60
25616;DHT22;13482;48.234;13.006;2022-10-16T16:26:39;29.60;54.00
25616;DHT22;13482;48.234;13.006;2022-10-16T16:29:14;29.20;54.30
25616;DHT22;13482;48.234;13.006;2022-10-16T16:31:42;28.90;54.80
25616;DHT22;13482;48.234;13.006;2022-10-16T16:34:09;28.50;55.20
25616;DHT22;13482;48.234;13.006;2022-10-16T16:36:37;28.20;55.50
25616;DHT22;13482;48.234;13.006;2022-10-16T16:39:04;27.90;55.90
25616;DHT22;13482;48.234;13.006;2022-10-16T16:41:31;27.50;56.30
25616;DHT22;13482;48.234;13.006;2022-10-16T16:44:05;27.30;56.50
25616;DHT22;13482;48.234;13.006;2022-10-16T16:46:34;27.00;57.00
25616;DHT22;13482;48.234;13.006;2022-10-16T16:49:02;26.80;57.10
25616;DHT22;13482;48.234;13.006;2022-10-16T16:51:29;26.50;57.40
25616;DHT22;13482;48.234;13.006;2022-10-16T16:53:57;26.30;57.60
25616;DHT22;13482;48.234;13.006;2022-10-16T16:56:25;26.10;57.90
25616;DHT22;13482;48.234;13.006;2022-10-16T16:58:54;25.90;58.10
25616;DHT22;13482;48.234;13.006;2022-10-16T17:01:24;25.70;58.40
25616;DHT22;13482;48.234;13.006;2022-10-16T17:03:54;25.50;58.80
25616;DHT22;13482;48.234;13.006;2022-10-16T17:06:25;25.30;59.00
25616;DHT22;13482;48.234;13.006;2022-10-16T17:08:54;25.10;59.50
25616;DHT22;13482;48.234;13.006;2022-10-16T17:11:23;25.00;59.70
25616;DHT22;13482;48.234;13.006;2022-10-16T17:13:53;24.80;60.10
25616;DHT22;13482;48.234;13.006;2022-10-16T17:16:24;24.70;60.30
25616;DHT22;13482;48.234;13.006;2022-10-16T17:18:53;24.60;60.50
25616;DHT22;13482;48.234;13.006;2022-10-16T17:21:21;24.50;60.50
25616;DHT22;13482;48.234;13.006;2022-10-16T17:23:51;24.40;60.60
25616;DHT22;13482;48.234;13.006;2022-10-16T17:26:19;24.30;60.80
25616;DHT22;13482;48.234;13.006;2022-10-16T17:28:51;24.10;60.70
25616;DHT22;13482;48.234;13.006;2022-10-16T17:31:21;24.00;61.10
25616;DHT22;13482;48.234;13.006;2022-10-16T17:33:51;23.90;61.40
25616;DHT22;13482;48.234;13.006;2022-10-16T17:36:19;23.80;61.50
25616;DHT22;13482;48.234;13.006;2022-10-16T17:38:47;23.70;61.70
25616;DHT22;13482;48.234;13.006;2022-10-16T17:41:20;23.60;61.90
25616;DHT22;13482;48.234;13.006;2022-10-16T17:43:50;23.50;62.20
25616;DHT22;13482;48.234;13.006;2022-10-16T17:46:20;23.40;62.00
25616;DHT22;13482;48.234;13.006;2022-10-16T17:48:51;23.30;62.10
25616;DHT22;13482;48.234;13.006;2022-10-16T17:51:24;23.20;62.20
25616;DHT22;13482;48.234;13.006;2022-10-16T17:53:56;23.10;62.50
25616;DHT22;13482;48.234;13.006;2022-10-16T17:56:26;23.00;62.80
25616;DHT22;13482;48.234;13.006;2022-10-16T17:58:55;23.00;62.90
25616;DHT22;13482;48.234;13.006;2022-10-16T18:01:33;22.90;63.00